Time;durP1;ratioP1;P1;durP2;ratioP2;P2;SDS_P1;SDS_P2;PMS_P1;PMS_P2;Temp;Humidity;BMP_temperature;BMP_pressure;BME280_temperature;BME280_humidity;BME280_pressure;Samples;Min_cycle;Max_cycle;Signal;HPM_P1;HPM_P2
2022/08/11 00:00:20;;;;;;;8.65;5.53;;;17.80;99.90;;;;;;5021847;28;20488;-59
2022/08/11 00:02:51;;;;;;;7.55;5.97;;;17.70;99.90;;;;;;5034930;28;20044;-60
2022/08/11 00:05:19;;;;;;;9.23;5.75;;;17.70;99.90;;;;;;5022349;28;20041;-60
2022/08/11 00:07:54;;;;;;;9.13;5.70;;;17.70;99.90;;;;;;5023971;28;20080;-61
2022/08/11 00:10:23;;;;;;;11.52;6.05;;;17.60;99.90;;;;;;5037154;28;20476;-60
2022/08/11 00:12:57;;;;;;;8.73;6.13;;;17.60;99.90;;;;;;5035846;28;20484;-61
2022/08/11 00:15:26;;;;;;;8.65;5.68;;;17.60;99.90;;;;;;5020526;28;20038;-60
2022/08/11 00:17:59;;;;;;;10.65;6.90;;;17.60;99.90;;;;;;5020486;28;20099;-60
2022/08/11 00:20:35;;;;;;;7.95;5.70;;;17.60;99.90;;;;;;5021174;28;20056;-61
2022/08/11 00:23:04;;;;;;;9.15;6.38;;;17.50;99.90;;;;;;5022862;28;20140;-61
2022/08/11 00:25:36;;;;;;;7.95;6.20;;;17.50;99.90;;;;;;5022796;28;20395;-61
2022/08/11 00:28:02;;;;;;;8.57;5.70;;;17.50;99.90;;;;;;5020470;28;20057;-61
2022/08/11 00:30:38;;;;;;;12.43;6.28;;;17.50;99.90;;;;;;5003359;28;20041;-61
2022/08/11 00:33:04;;;;;;;8.30;6.47;;;17.50;99.90;;;;;;5022782;28;20114;-61
2022/08/11 00:35:32;;;;;;;10.63;6.47;;;17.50;99.90;;;;;;5019557;28;20588;-61
2022/08/11 00:37:59;;;;;;;10.40;6.20;;;17.40;99.90;;;;;;5022638;28;20501;-61
2022/08/11 00:40:52;;;;;;;8.55;6.13;;;17.40;99.90;;;;;;5020921;28;20100;-61
2022/08/11 00:43:48;;;;;;;9.10;6.63;;;17.40;99.90;;;;;;5023324;28;20128;-61
2022/08/11 00:46:14;;;;;;;8.50;6.43;;;17.40;99.90;;;;;;5020830;28;20115;-60
2022/08/11 00:49:23;;;;;;;10.50;6.30;;;17.30;99.90;;;;;;5019633;28;20053;-60
2022/08/11 00:52:45;;;;;;;6.60;5.88;;;17.30;99.90;;;;;;5021339;28;20044;-61
2022/08/11 00:55:20;;;;;;;9.30;6.75;;;17.30;99.90;;;;;;4984297;28;20045;-61
2022/08/11 00:58:05;;;;;;;9.23;6.97;;;17.30;99.90;;;;;;4984622;28;20045;-61
2022/08/11 01:01:04;;;;;;;15.13;7.63;;;17.30;99.90;;;;;;5016051;28;20652;-59
2022/08/11 01:04:04;;;;;;;9.52;6.55;;;17.20;99.90;;;;;;5020538;28;20073;-61
2022/08/11 01:06:51;;;;;;;9.43;7.25;;;17.20;99.90;;;;;;5019708;28;20543;-61
2022/08/11 01:09:37;;;;;;;11.30;6.18;;;17.20;99.90;;;;;;5020705;28;20473;-62
2022/08/11 01:12:17;;;;;;;10.20;6.63;;;17.20;99.90;;;;;;5020680;28;20045;-62
2022/08/11 01:15:26;;;;;;;9.27;6.50;;;17.20;99.90;;;;;;5020149;28;20049;-61
2022/08/11 01:17:57;;;;;;;12.23;6.90;;;17.20;99.90;;;;;;5004733;28;20614;-61
2022/08/11 01:21:04;;;;;;;13.77;6.90;;;17.20;99.90;;;;;;5020915;28;20064;-61
2022/08/11 01:23:58;;;;;;;9.15;6.05;;;17.20;99.90;;;;;;5019155;28;20049;-61
2022/08/11 01:26:48;;;;;;;9.88;6.82;;;17.20;99.90;;;;;;5017775;28;20127;-62
2022/08/11 01:29:47;;;;;;;9.15;6.32;;;17.20;99.90;;;;;;5021028;28;20061;-61
2022/08/11 01:32:49;;;;;;;11.07;6.50;;;17.20;99.90;;;;;;5020437;28;20052;-61
2022/08/11 01:35:51;;;;;;;8.88;6.65;;;17.20;99.90;;;;;;5019791;28;20045;-61
2022/08/11 01:38:29;;;;;;;10.02;7.63;;;17.20;99.90;;;;;;5022240;28;20092;-61
2022/08/11 01:41:14;;;;;;;8.20;6.65;;;17.10;99.90;;;;;;5021075;28;20072;-61
2022/08/11 01:50:26;;;;;;;9.43;7.03;;;17.10;99.90;;;;;;4995722;28;20056;-61
2022/08/11 01:52:57;;;;;;;12.15;7.80;;;17.10;99.90;;;;;;5019754;28;20037;-61
2022/08/11 01:55:31;;;;;;;10.70;7.38;;;17.10;99.90;;;;;;5020548;28;20088;-61
2022/08/11 01:58:07;;;;;;;9.63;7.70;;;17.00;99.90;;;;;;5020012;28;20049;-61
2022/08/11 02:00:57;;;;;;;10.60;8.38;;;17.00;99.90;;;;;;5004234;28;20041;-61
2022/08/11 02:03:43;;;;;;;11.88;7.72;;;17.00;99.90;;;;;;5004905;28;20060;-61
2022/08/11 02:06:55;;;;;;;11.38;7.10;;;17.00;99.90;;;;;;5018889;28;20041;-61
2022/08/11 02:11:29;;;;;;;13.10;7.97;;;17.00;99.90;;;;;;5019203;28;20385;-61
2022/08/11 02:12:57;;;;;;;9.50;7.18;;;17.00;99.90;;;;;;5019879;28;20048;-62
2022/08/11 02:15:28;;;;;;;11.43;7.93;;;16.90;99.90;;;;;;5005495;28;20039;-62
2022/08/11 02:18:20;;;;;;;10.65;7.60;;;16.90;99.90;;;;;;5018644;28;21780;-61
2022/08/11 02:23:50;;;;;;;11.20;8.60;;;16.90;99.90;;;;;;5020338;28;20400;-61
2022/08/11 02:26:29;;;;;;;9.23;8.25;;;16.90;99.90;;;;;;5020993;28;20072;-61
2022/08/11 02:29:23;;;;;;;9.93;7.60;;;16.90;99.90;;;;;;5020340;28;20048;-62
2022/08/11 02:34:58;;;;;;;11.15;7.97;;;16.90;99.90;;;;;;5020646;28;20056;-61
2022/08/11 02:37:33;;;;;;;10.73;7.88;;;16.90;99.90;;;;;;5040184;28;20045;-61
2022/08/11 02:40:10;;;;;;;12.45;7.35;;;16.90;99.90;;;;;;5023813;28;20041;-62
2022/08/11 02:42:45;;;;;;;9.90;7.80;;;16.90;99.90;;;;;;5023176;28;20486;-61
2022/08/11 02:45:16;;;;;;;10.48;7.95;;;16.90;99.90;;;;;;5023464;28;20052;-62
2022/08/11 02:50:49;;;;;;;13.50;9.13;;;16.90;99.90;;;;;;5023794;28;20049;-62
2022/08/11 02:53:31;;;;;;;8.93;7.30;;;16.90;99.90;;;;;;5023984;28;20048;-61
2022/08/11 02:56:15;;;;;;;16.90;8.80;;;16.90;99.90;;;;;;5024544;28;20080;-62
2022/08/11 02:59:49;;;;;;;11.63;8.25;;;16.90;99.90;;;;;;5024169;28;20120;-61
2022/08/11 03:01:49;;;;;;;11.77;8.13;;;16.90;99.90;;;;;;5038940;28;20045;-62
2022/08/11 03:04:28;;;;;;;14.07;10.13;;;16.80;99.90;;;;;;5023073;28;20049;-62
2022/08/11 03:07:09;;;;;;;13.35;8.50;;;16.80;99.90;;;;;;5023514;28;20049;-62
2022/08/11 03:10:01;;;;;;;12.00;8.63;;;16.80;99.90;;;;;;5021262;28;20103;-61
2022/08/11 03:18:50;;;;;;;12.48;8.65;;;16.70;99.90;;;;;;5000153;28;20496;-60
2022/08/11 03:21:40;;;;;;;9.55;8.30;;;16.70;99.90;;;;;;5022507;28;20666;-60
2022/08/11 03:24:23;;;;;;;15.88;8.95;;;16.70;99.90;;;;;;5023075;28;20045;-59
2022/08/11 03:27:02;;;;;;;12.00;8.93;;;16.70;99.90;;;;;;5022640;28;20045;-60
2022/08/11 03:29:39;;;;;;;14.20;9.55;;;16.60;99.90;;;;;;5023645;28;20096;-58
2022/08/11 03:32:19;;;;;;;12.70;8.98;;;16.60;99.90;;;;;;5022683;28;20487;-60
2022/08/11 03:34:47;;;;;;;13.88;9.05;;;16.60;99.90;;;;;;5022973;28;20506;-60
2022/08/11 03:43:23;;;;;;;13.20;8.80;;;16.50;99.90;;;;;;5022316;28;20048;-60
2022/08/11 03:46:15;;;;;;;13.60;8.77;;;16.50;99.90;;;;;;5020468;28;20057;-60
2022/08/11 03:48:53;;;;;;;11.88;8.80;;;16.50;99.90;;;;;;5022310;28;20448;-60
2022/08/11 03:51:28;;;;;;;13.82;9.60;;;16.40;99.90;;;;;;5036780;28;20037;-61
2022/08/11 03:54:05;;;;;;;13.68;9.43;;;16.40;99.90;;;;;;5021383;28;20049;-61
2022/08/11 03:57:02;;;;;;;11.07;8.38;;;16.40;99.90;;;;;;5024058;28;20041;-61
2022/08/11 03:59:50;;;;;;;11.48;8.63;;;16.40;99.90;;;;;;5021597;28;20104;-61
2022/08/11 04:02:42;;;;;;;10.02;8.77;;;16.30;99.90;;;;;;5021881;28;20791;-60
2022/08/11 04:05:40;;;;;;;14.38;10.40;;;16.30;99.90;;;;;;5022170;28;20038;-60
2022/08/11 04:08:34;;;;;;;14.48;8.93;;;16.30;99.90;;;;;;5023289;28;20053;-61
2022/08/11 04:11:32;;;;;;;13.32;10.15;;;16.30;99.90;;;;;;5022495;28;20464;-61
2022/08/11 04:17:34;;;;;;;18.38;11.00;;;16.30;99.90;;;;;;5020532;28;20055;-61
2022/08/11 04:20:31;;;;;;;14.77;11.00;;;16.30;99.90;;;;;;5019819;28;20045;-61
2022/08/11 04:23:21;;;;;;;14.23;9.75;;;16.30;99.90;;;;;;5020126;28;20045;-61
2022/08/11 04:26:05;;;;;;;16.50;10.27;;;16.30;99.90;;;;;;5021091;28;20563;-61
2022/08/11 04:28:45;;;;;;;20.42;11.32;;;16.40;99.90;;;;;;5020911;28;20049;-61
2022/08/11 04:31:36;;;;;;;19.13;12.40;;;16.40;99.90;;;;;;5021744;28;20049;-61
2022/08/11 04:34:05;;;;;;;20.00;12.25;;;16.40;99.90;;;;;;5019025;28;20453;-61
2022/08/11 04:40:05;;;;;;;17.52;12.18;;;16.40;99.90;;;;;;5020811;28;20081;-61
2022/08/11 04:45:35;;;;;;;17.80;12.88;;;16.40;99.90;;;;;;5020878;28;20045;-61
2022/08/11 05:07:14;;;;;;;23.80;12.30;;;16.70;99.90;;;;;;5019009;28;20046;-61
2022/08/11 05:10:12;;;;;;;17.65;11.60;;;16.80;99.90;;;;;;5020286;28;20038;-61
2022/08/11 05:12:51;;;;;;;14.57;11.02;;;16.90;99.90;;;;;;5019117;28;20053;-61
2022/08/11 05:36:25;;;;;;;13.60;8.45;;;17.30;99.90;;;;;;5021741;28;20049;-61
2022/08/11 05:58:40;;;;;;;11.48;6.85;;;17.60;99.90;;;;;;5017255;28;20045;-61
2022/08/11 06:01:07;;;;;;;11.00;7.00;;;17.70;99.90;;;;;;5019712;28;20045;-61
2022/08/11 06:04:13;;;;;;;10.43;6.70;;;17.70;99.90;;;;;;5019079;28;20056;-61
2022/08/11 06:06:27;;;;;;;11.23;6.93;;;17.80;99.90;;;;;;5019227;28;20112;-61
2022/08/11 06:08:58;;;;;;;10.18;6.85;;;17.80;99.90;;;;;;5021133;28;20060;-61
2022/08/11 06:11:25;;;;;;;11.63;6.53;;;17.90;99.90;;;;;;5024246;28;20044;-61
2022/08/11 06:13:53;;;;;;;13.15;6.78;;;17.90;99.90;;;;;;5024084;28;20442;-62
2022/08/11 06:16:26;;;;;;;11.70;6.72;;;18.00;99.90;;;;;;5023987;28;20037;-61
2022/08/11 06:18:52;;;;;;;9.68;6.65;;;18.00;99.90;;;;;;5024171;28;20056;-60
2022/08/11 06:21:20;;;;;;;12.10;6.82;;;18.10;99.90;;;;;;5023183;28;20044;-61
2022/08/11 06:23:47;;;;;;;9.38;6.22;;;18.20;99.90;;;;;;5025950;28;20793;-65
2022/08/11 06:26:14;;;;;;;9.02;6.53;;;18.30;99.90;;;;;;5024878;28;20049;-61
2022/08/11 06:28:44;;;;;;;13.27;6.20;;;18.30;99.90;;;;;;5023430;28;20052;-61
2022/08/11 06:31:23;;;;;;;7.22;5.40;;;18.40;99.90;;;;;;5024115;28;20417;-61
2022/08/11 06:34:00;;;;;;;7.68;5.30;;;18.50;99.90;;;;;;5021175;28;20049;-61
2022/08/11 06:36:47;;;;;;;9.82;6.43;;;18.60;99.90;;;;;;5024014;28;20108;-61
2022/08/11 06:39:35;;;;;;;9.40;5.72;;;18.70;99.90;;;;;;5022405;28;20045;-61
2022/08/11 06:42:09;;;;;;;8.82;5.30;;;18.80;99.90;;;;;;5022569;28;20045;-61
2022/08/11 06:45:04;;;;;;;9.35;5.97;;;18.90;99.90;;;;;;5024995;28;20045;-61
2022/08/11 06:47:30;;;;;;;7.25;5.07;;;19.00;99.90;;;;;;5024373;28;20064;-61
2022/08/11 06:52:45;;;;;;;12.57;4.70;;;19.20;99.90;;;;;;5009281;28;20488;-61
2022/08/11 07:01:12;;;;;;;6.88;4.32;;;19.50;99.90;;;;;;5023419;28;20060;-61
2022/08/11 07:03:47;;;;;;;7.00;4.00;;;19.70;99.90;;;;;;5023303;28;20050;-61
2022/08/11 07:06:24;;;;;;;8.93;4.13;;;19.70;99.90;;;;;;5006460;28;20060;-61
2022/08/11 07:15:42;;;;;;;7.20;4.00;;;20.10;99.90;;;;;;5024082;28;20104;-61
2022/08/11 07:30:11;;;;;;;10.68;3.75;;;20.90;99.90;;;;;;5024676;28;20049;-61
2022/08/11 07:32:52;;;;;;;5.28;3.00;;;21.10;99.90;;;;;;5023738;28;20441;-61
2022/08/11 07:35:26;;;;;;;10.35;3.50;;;21.20;99.90;;;;;;5022701;28;20056;-61
2022/08/11 07:37:57;;;;;;;7.32;4.07;;;21.30;99.90;;;;;;5023209;28;20055;-62
2022/08/11 07:40:25;;;;;;;9.10;3.60;;;21.50;99.90;;;;;;5021591;28;20041;-62
2022/08/11 07:42:52;;;;;;;10.35;3.50;;;21.60;99.90;;;;;;5022525;28;21460;-61
2022/08/11 07:53:38;;;;;;;9.00;3.38;;;22.20;99.90;;;;;;5038339;28;20399;-62
2022/08/11 07:56:06;;;;;;;9.18;3.00;;;22.30;99.90;;;;;;5023406;28;20083;-62
2022/08/11 08:18:03;;;;;;;6.50;2.90;;;23.40;99.40;;;;;;5021901;28;20052;-62
2022/08/11 08:20:39;;;;;;;7.07;3.30;;;23.50;99.50;;;;;;5019817;28;20056;-62
2022/08/11 08:23:05;;;;;;;4.55;2.20;;;23.70;99.10;;;;;;5022239;28;20500;-61
2022/08/11 08:25:34;;;;;;;9.13;2.58;;;23.80;98.80;;;;;;5036900;28;20506;-62
2022/08/11 08:28:04;;;;;;;5.97;2.60;;;24.00;98.30;;;;;;5020660;28;20545;-62
2022/08/11 08:33:24;;;;;;;5.93;2.60;;;24.20;97.70;;;;;;5020780;28;20044;-62
2022/08/11 08:36:10;;;;;;;9.07;2.60;;;24.40;97.20;;;;;;5019875;28;20045;-62
2022/08/11 08:38:51;;;;;;;6.00;2.35;;;24.50;96.60;;;;;;5019354;28;20053;-62
2022/08/11 08:41:34;;;;;;;4.97;2.25;;;24.70;96.10;;;;;;5021334;28;20073;-62
2022/08/11 08:44:07;;;;;;;5.90;1.95;;;24.80;95.10;;;;;;5022082;28;20399;-62
2022/08/11 08:46:39;;;;;;;5.70;2.15;;;24.90;94.00;;;;;;5020998;28;20444;-61
2022/08/11 08:49:08;;;;;;;8.65;2.20;;;25.00;93.60;;;;;;5019031;28;20491;-62
2022/08/11 08:51:38;;;;;;;7.47;2.40;;;25.20;93.50;;;;;;5022134;28;20411;-62
2022/08/11 08:54:10;;;;;;;3.88;2.10;;;25.30;93.50;;;;;;5023142;28;20049;-62
2022/08/11 08:56:39;;;;;;;7.80;2.05;;;25.40;92.60;;;;;;5022165;28;20510;-62
2022/08/11 08:59:06;;;;;;;5.10;2.30;;;25.50;91.70;;;;;;5019407;28;20076;-62
2022/08/11 09:01:58;;;;;;;4.53;2.22;;;25.60;91.60;;;;;;5036310;28;20083;-62
2022/08/11 09:04:25;;;;;;;3.55;1.80;;;25.80;91.10;;;;;;5017497;28;20061;-62
2022/08/11 09:06:53;;;;;;;5.22;2.28;;;25.90;91.30;;;;;;5019556;28;20167;-62
2022/08/11 09:09:21;;;;;;;5.13;1.90;;;26.10;91.20;;;;;;5020572;28;20056;-62
2022/08/11 09:11:52;;;;;;;4.95;1.90;;;26.30;90.30;;;;;;5022613;28;20049;-62
2022/08/11 09:14:24;;;;;;;3.92;2.00;;;26.30;89.20;;;;;;5019908;28;20068;-62
2022/08/11 09:16:51;;;;;;;7.07;2.10;;;26.50;87.30;;;;;;5019139;28;20095;-62
2022/08/11 09:19:19;;;;;;;4.80;1.85;;;26.60;86.20;;;;;;5034062;28;20406;-62
2022/08/11 09:27:22;;;;;;;6.05;1.90;;;27.00;83.40;;;;;;5021779;28;20102;-62
2022/08/11 09:29:48;;;;;;;5.82;2.10;;;27.10;83.40;;;;;;5021868;28;20045;-62
2022/08/11 09:32:19;;;;;;;4.15;1.77;;;27.30;82.50;;;;;;5018218;28;20072;-63
2022/08/11 09:34:46;;;;;;;7.13;1.95;;;27.30;80.50;;;;;;5032786;28;20045;-62
2022/08/11 09:45:27;;;;;;;2.42;1.60;;;27.80;77.10;;;;;;5009411;28;20041;-62
2022/08/11 09:47:53;;;;;;;4.18;1.63;;;28.00;76.10;;;;;;5012390;28;22275;-62
2022/08/11 09:50:20;;;;;;;4.45;1.70;;;28.10;74.50;;;;;;5011012;28;20065;-62
2022/08/11 09:52:49;;;;;;;2.38;1.60;;;28.30;74.70;;;;;;5015437;28;20077;-62
2022/08/11 09:55:16;;;;;;;2.53;1.52;;;28.40;71.80;;;;;;5007125;28;20128;-62
2022/08/11 10:00:39;;;;;;;4.95;1.58;;;28.50;70.20;;;;;;5017250;28;20491;-62
2022/08/11 10:03:17;;;;;;;6.57;1.75;;;28.70;69.10;;;;;;5010667;28;20088;-63
2022/08/11 10:08:34;;;;;;;2.75;1.33;;;29.00;68.00;;;;;;5013616;28;20046;-62
2022/08/11 10:11:01;;;;;;;8.77;1.60;;;29.10;65.80;;;;;;5023840;28;20045;-63
2022/08/11 10:13:33;;;;;;;4.63;1.60;;;29.30;65.70;;;;;;5026482;28;20089;-63
2022/08/11 10:16:03;;;;;;;3.95;1.45;;;29.40;64.00;;;;;;5010893;28;20500;-62
2022/08/11 10:18:41;;;;;;;3.50;1.60;;;29.50;62.50;;;;;;5014790;28;20072;-63
2022/08/11 10:21:13;;;;;;;5.22;1.70;;;29.50;62.50;;;;;;5008414;28;20488;-63
2022/08/11 10:34:46;;;;;;;6.00;1.75;;;30.00;59.90;;;;;;5013882;28;20050;-63
2022/08/11 10:37:14;;;;;;;2.25;1.25;;;30.10;58.10;;;;;;5010178;28;20080;-61
2022/08/11 10:39:41;;;;;;;4.90;1.45;;;30.10;58.30;;;;;;5010442;28;20049;-62
2022/08/11 10:44:56;;;;;;;5.03;1.50;;;30.30;58.90;;;;;;5010993;28;20042;-61
2022/08/11 10:47:35;;;;;;;4.95;1.15;;;30.40;59.00;;;;;;5004374;28;20063;-61
2022/08/11 10:58:48;;;;;;;4.18;1.20;;;31.00;57.80;;;;;;5017296;28;20057;-61
2022/08/11 11:01:39;;;;;;;5.97;1.25;;;31.20;56.30;;;;;;5015715;28;20050;-62
2022/08/11 11:04:10;;;;;;;3.67;1.20;;;31.30;55.50;;;;;;5016611;28;20380;-62
2022/08/11 11:06:59;;;;;;;2.45;1.33;;;31.50;56.50;;;;;;5014105;28;20391;-62
2022/08/11 11:09:42;;;;;;;6.15;1.45;;;31.70;55.50;;;;;;5015199;28;20239;-63
2022/08/11 11:17:55;;;;;;;4.88;1.20;;;31.80;53.00;;;;;;5013940;28;20129;-62
2022/08/11 11:20:25;;;;;;;3.95;1.38;;;31.90;53.60;;;;;;5013391;28;20672;-62
2022/08/11 11:22:55;;;;;;;2.40;1.20;;;32.10;53.90;;;;;;5012528;28;20053;-62
2022/08/11 11:26:06;;;;;;;8.57;1.55;;;32.20;53.60;;;;;;4996840;28;20054;-62
2022/08/11 11:28:56;;;;;;;4.00;1.48;;;32.40;52.70;;;;;;5007234;28;20676;-62
2022/08/11 11:31:35;;;;;;;2.42;1.30;;;32.40;51.50;;;;;;5021514;28;20048;-61
2022/08/11 11:34:42;;;;;;;2.65;1.48;;;32.40;51.40;;;;;;5023228;28;20145;-62
2022/08/11 11:37:12;;;;;;;2.50;1.42;;;32.50;51.00;;;;;;5026912;28;20072;-62
2022/08/11 11:39:38;;;;;;;8.02;1.40;;;32.50;51.10;;;;;;5006742;28;20064;-61
2022/08/11 11:42:09;;;;;;;2.50;1.45;;;32.50;50.80;;;;;;5021972;28;20049;-62
2022/08/11 11:44:37;;;;;;;3.33;1.33;;;32.60;51.40;;;;;;5023926;28;20510;-61
2022/08/11 11:47:05;;;;;;;5.80;1.60;;;32.70;51.70;;;;;;5022637;28;20133;-62
2022/08/11 11:49:32;;;;;;;3.85;1.48;;;32.80;51.20;;;;;;5019634;28;20449;-62
2022/08/11 11:51:59;;;;;;;3.72;1.40;;;32.90;51.10;;;;;;5022984;28;20045;-61
2022/08/11 11:54:28;;;;;;;8.02;1.30;;;33.10;50.60;;;;;;5022269;28;20045;-61
2022/08/11 11:56:56;;;;;;;2.03;1.17;;;33.20;49.80;;;;;;5020265;28;21688;-62
2022/08/11 12:02:12;;;;;;;3.85;1.45;;;33.30;51.40;;;;;;5021951;28;20046;-61
2022/08/11 12:04:44;;;;;;;5.50;1.58;;;33.40;49.80;;;;;;5019372;28;20056;-62
2022/08/11 12:09:56;;;;;;;3.03;1.40;;;33.50;49.70;;;;;;5022721;28;20272;-62
2022/08/11 12:15:08;;;;;;;2.22;1.30;;;33.60;48.50;;;;;;5019778;28;20053;-62
2022/08/11 12:17:36;;;;;;;4.07;1.23;;;33.70;48.80;;;;;;5023153;28;20128;-62
2022/08/11 12:20:03;;;;;;;3.00;1.40;;;33.70;47.40;;;;;;5021195;28;20049;-61
2022/08/11 12:28:00;;;;;;;3.95;1.30;;;33.70;47.60;;;;;;5022378;28;20056;-61
2022/08/11 12:30:26;;;;;;;5.10;1.10;;;33.80;48.10;;;;;;5022500;28;20470;-62
2022/08/11 12:32:52;;;;;;;4.93;1.38;;;33.90;48.80;;;;;;5020683;28;20446;-61
2022/08/11 12:35:18;;;;;;;2.42;0.98;;;34.00;48.20;;;;;;5021166;28;20045;-62
2022/08/11 12:37:48;;;;;;;3.00;1.10;;;34.20;49.40;;;;;;5005804;28;20425;-62
2022/08/11 12:45:57;;;;;;;6.65;1.40;;;34.40;47.00;;;;;;5020875;28;20045;-63
2022/08/11 12:54:13;;;;;;;5.90;1.30;;;34.60;47.30;;;;;;5022971;28;20472;-62
2022/08/11 13:05:10;;;;;;;2.25;0.98;;;34.70;46.20;;;;;;5017044;28;20037;-62
2022/08/11 13:07:39;;;;;;;3.30;1.20;;;34.80;45.40;;;;;;5021754;28;20060;-62
2022/08/11 13:10:08;;;;;;;5.15;1.10;;;34.70;45.20;;;;;;5021258;28;20067;-62
2022/08/11 13:12:47;;;;;;;2.35;1.10;;;34.80;45.60;;;;;;5019807;28;20049;-62
2022/08/11 13:15:21;;;;;;;3.88;1.10;;;34.80;45.60;;;;;;5020873;28;20424;-62
2022/08/11 13:17:50;;;;;;;4.07;1.40;;;34.80;45.60;;;;;;5021639;28;20049;-62
2022/08/11 13:20:19;;;;;;;1.88;1.00;;;35.00;45.40;;;;;;5018312;28;20362;-62
2022/08/11 13:22:49;;;;;;;3.20;1.20;;;34.90;44.70;;;;;;5019438;28;20136;-62
2022/08/11 13:25:18;;;;;;;5.78;1.10;;;34.80;45.10;;;;;;5021810;28;20488;-62
2022/08/11 13:27:47;;;;;;;4.43;1.00;;;34.80;44.80;;;;;;5020570;28;20054;-62
2022/08/11 13:33:00;;;;;;;3.90;1.20;;;35.00;45.00;;;;;;5020436;28;20213;-62
2022/08/11 13:35:28;;;;;;;4.50;1.10;;;35.00;43.90;;;;;;5018922;28;20545;-62
2022/08/11 13:37:55;;;;;;;1.60;1.13;;;34.90;43.80;;;;;;5019675;28;20049;-62
2022/08/11 13:40:22;;;;;;;5.22;1.20;;;34.90;44.00;;;;;;5021654;28;20404;-62
2022/08/11 13:42:49;;;;;;;2.03;1.08;;;35.00;43.80;;;;;;5023819;28;20087;-61
2022/08/11 13:45:15;;;;;;;4.90;1.00;;;35.00;43.00;;;;;;5020257;28;20046;-62
2022/08/11 13:47:42;;;;;;;1.17;1.00;;;35.00;43.90;;;;;;5018518;28;20034;-62
2022/08/11 13:50:11;;;;;;;3.58;1.05;;;35.10;43.90;;;;;;5019460;28;20079;-62
2022/08/11 13:52:38;;;;;;;1.20;1.10;;;35.40;43.40;;;;;;5021120;28;20083;-62
2022/08/11 13:55:07;;;;;;;1.48;0.90;;;35.40;42.90;;;;;;5017846;28;20060;-62
2022/08/11 13:57:34;;;;;;;1.65;0.90;;;35.40;43.40;;;;;;5021303;28;20143;-62
2022/08/11 14:00:09;;;;;;;6.85;1.15;;;35.60;43.50;;;;;;5020055;28;20088;-62
2022/08/11 14:02:42;;;;;;;3.55;1.00;;;35.80;42.80;;;;;;5021263;28;20491;-62
2022/08/11 14:05:16;;;;;;;2.35;0.90;;;35.80;42.80;;;;;;5019154;28;20056;-62
2022/08/11 14:07:59;;;;;;;1.95;1.10;;;35.70;42.30;;;;;;5035637;28;20568;-62
2022/08/11 14:10:28;;;;;;;2.58;1.10;;;35.60;42.00;;;;;;5020925;28;20080;-62
2022/08/11 14:15:51;;;;;;;3.72;1.10;;;35.40;41.80;;;;;;5020850;28;20034;-62
2022/08/11 14:18:19;;;;;;;7.20;1.20;;;35.40;42.70;;;;;;5018946;28;20049;-61
2022/08/11 14:23:39;;;;;;;2.05;1.05;;;35.50;43.20;;;;;;5021040;28;20135;-61
2022/08/11 14:26:22;;;;;;;4.38;1.33;;;35.60;42.80;;;;;;5021768;28;20046;-62
2022/08/11 14:29:16;;;;;;;4.70;1.20;;;35.50;42.80;;;;;;5020574;28;20049;-62
2022/08/11 14:31:52;;;;;;;3.10;1.10;;;35.50;43.10;;;;;;5023536;28;20777;-62
2022/08/11 14:34:20;;;;;;;5.85;1.40;;;35.50;42.80;;;;;;5022790;28;20045;-63
2022/08/11 14:36:51;;;;;;;4.05;2.00;;;35.60;43.40;;;;;;5025995;28;20134;-61
2022/08/11 14:39:21;;;;;;;4.38;1.13;;;35.60;44.30;;;;;;5023124;28;20053;-62
2022/08/11 14:47:23;;;;;;;8.10;1.60;;;35.40;44.60;;;;;;5025284;28;20122;-62
2022/08/11 14:49:50;;;;;;;5.97;1.13;;;35.10;44.20;;;;;;5021525;28;20052;-62
2022/08/11 14:52:19;;;;;;;3.60;1.08;;;35.00;44.30;;;;;;5009421;28;20045;-63
2022/08/11 14:57:36;;;;;;;2.90;1.10;;;34.80;44.90;;;;;;5025530;28;20055;-62
2022/08/11 15:00:05;;;;;;;4.93;1.10;;;34.80;44.80;;;;;;5023162;28;20061;-61
2022/08/11 15:05:19;;;;;;;7.63;2.13;;;34.90;44.80;;;;;;5021467;28;20068;-62
2022/08/11 15:07:45;;;;;;;1.83;1.20;;;35.00;44.80;;;;;;5005805;28;20049;-62
2022/08/11 15:10:11;;;;;;;5.03;1.20;;;35.00;45.30;;;;;;5024716;28;20057;-62
2022/08/11 15:12:40;;;;;;;20.50;3.22;;;35.10;44.50;;;;;;5025291;28;20046;-62
2022/08/11 15:17:55;;;;;;;4.22;1.15;;;35.20;44.50;;;;;;5023492;28;20574;-62
2022/08/11 15:26:09;;;;;;;9.38;2.00;;;35.50;44.10;;;;;;5022708;28;20330;-62
2022/08/11 15:37:26;;;;;;;3.78;1.30;;;35.50;44.20;;;;;;5022583;28;20049;-62
2022/08/11 15:46:01;;;;;;;2.88;1.23;;;35.00;44.10;;;;;;5023813;28;20544;-63
2022/08/11 15:48:38;;;;;;;5.47;1.30;;;34.80;44.20;;;;;;5038362;28;20119;-63
2022/08/11 15:51:11;;;;;;;6.32;1.27;;;34.70;44.70;;;;;;5021825;28;20045;-62
2022/08/11 15:53:45;;;;;;;3.88;1.40;;;34.60;44.70;;;;;;5021827;28;20136;-63
2022/08/11 15:56:12;;;;;;;8.43;1.48;;;34.60;45.20;;;;;;5023220;28;20045;-62
2022/08/11 16:04:17;;;;;;;6.30;1.40;;;34.50;44.50;;;;;;5022650;28;20374;-63
2022/08/11 16:06:51;;;;;;;8.40;1.20;;;34.40;45.00;;;;;;5023569;28;20373;-63
2022/08/11 16:09:43;;;;;;;7.57;1.00;;;34.40;45.10;;;;;;5023015;28;20472;-62
2022/08/11 16:12:15;;;;;;;5.45;1.60;;;34.30;45.10;;;;;;5019470;28;20444;-62
2022/08/11 16:17:33;;;;;;;5.72;1.20;;;34.10;44.80;;;;;;5023072;28;20076;-62
2022/08/11 16:20:01;;;;;;;10.15;1.67;;;34.00;45.30;;;;;;5019545;28;20040;-62
2022/08/11 16:22:36;;;;;;;7.55;1.20;;;34.00;45.30;;;;;;5007020;28;20057;-62
2022/08/11 16:25:06;;;;;;;13.00;1.40;;;34.00;45.80;;;;;;5021424;28;20053;-62
2022/08/11 16:27:37;;;;;;;2.97;1.20;;;33.80;45.10;;;;;;5019499;28;20049;-62
2022/08/11 16:30:07;;;;;;;4.50;1.20;;;33.80;45.00;;;;;;5005079;28;20054;-62
2022/08/11 16:32:35;;;;;;;5.10;1.35;;;33.60;45.20;;;;;;5021884;28;20311;-62
2022/08/11 16:40:38;;;;;;;4.85;1.30;;;33.20;45.90;;;;;;5022688;28;20152;-63
2022/08/11 16:48:44;;;;;;;3.00;1.20;;;32.30;47.10;;;;;;5020780;28;20398;-62
2022/08/11 16:51:12;;;;;;;4.00;1.30;;;32.00;47.70;;;;;;5019798;28;20049;-62
2022/08/11 16:53:39;;;;;;;3.20;1.20;;;31.70;48.20;;;;;;5021063;28;20041;-62
2022/08/11 16:56:08;;;;;;;2.60;1.10;;;31.40;48.60;;;;;;5021698;28;20049;-62
2022/08/11 17:01:24;;;;;;;3.67;1.10;;;31.00;49.80;;;;;;5023234;28;20136;-62
2022/08/11 17:18:05;;;;;;;5.13;1.20;;;29.60;52.40;;;;;;5020277;28;20399;-62
2022/08/11 17:20:32;;;;;;;7.93;1.83;;;29.40;52.90;;;;;;5019590;28;20411;-62
2022/08/11 17:25:49;;;;;;;6.60;1.70;;;29.00;53.70;;;;;;5022988;28;20099;-63
2022/08/11 17:28:18;;;;;;;11.60;1.67;;;28.80;54.30;;;;;;5020979;28;20120;-62
2022/08/11 17:36:34;;;;;;;4.03;1.58;;;28.50;55.80;;;;;;5013184;28;20623;-62
2022/08/11 17:39:01;;;;;;;5.18;1.40;;;28.40;56.10;;;;;;4987535;28;20134;-62
2022/08/11 17:49:43;;;;;;;8.57;1.75;;;27.90;57.40;;;;;;5022498;28;20100;-62
2022/08/11 18:00:27;;;;;;;4.10;1.40;;;27.40;58.70;;;;;;5020326;28;20053;-62
2022/08/11 18:05:42;;;;;;;7.65;1.90;;;27.30;59.30;;;;;;5024654;28;20048;-62
